sensor_id;sensor_type;location;lat;lon;timestamp;P1;durP1;ratioP1;P2;durP2;ratioP2
62071;SDS011;48031;48.542;13.232;2023-03-11T00:00:07;1.60;;;1.50;;
62071;SDS011;48031;48.542;13.232;2023-03-11T00:08:16;1.27;;;1.17;;
62071;SDS011;48031;48.542;13.232;2023-03-11T00:12:20;1.58;;;1.48;;
62071;SDS011;48031;48.542;13.232;2023-03-11T00:16:22;2.38;;;1.60;;
62071;SDS011;48031;48.542;13.232;2023-03-11T00:20:29;2.35;;;1.65;;
62071;SDS011;48031;48.542;13.232;2023-03-11T00:24:32;1.55;;;1.45;;
62071;SDS011;48031;48.542;13.232;2023-03-11T00:28:35;1.60;;;1.50;;
62071;SDS011;48031;48.542;13.232;2023-03-11T00:32:36;1.48;;;1.38;;
62071;SDS011;48031;48.542;13.232;2023-03-11T00:36:38;1.17;;;1.13;;
62071;SDS011;48031;48.542;13.232;2023-03-11T00:40:40;1.65;;;1.55;;
62071;SDS011;48031;48.542;13.232;2023-03-11T00:44:43;1.55;;;1.45;;
62071;SDS011;48031;48.542;13.232;2023-03-11T00:48:45;1.70;;;1.52;;
62071;SDS011;48031;48.542;13.232;2023-03-11T00:52:47;1.60;;;1.50;;
62071;SDS011;48031;48.542;13.232;2023-03-11T00:56:50;1.40;;;1.30;;
62071;SDS011;48031;48.542;13.232;2023-03-11T01:00:52;1.58;;;1.48;;
62071;SDS011;48031;48.542;13.232;2023-03-11T01:04:55;1.90;;;1.42;;
62071;SDS011;48031;48.542;13.232;2023-03-11T01:08:57;1.52;;;1.42;;
62071;SDS011;48031;48.542;13.232;2023-03-11T01:12:59;3.05;;;1.40;;
62071;SDS011;48031;48.542;13.232;2023-03-11T01:17:01;1.15;;;1.15;;
62071;SDS011;48031;48.542;13.232;2023-03-11T01:21:03;1.10;;;1.10;;
62071;SDS011;48031;48.542;13.232;2023-03-11T01:25:06;1.00;;;0.90;;
62071;SDS011;48031;48.542;13.232;2023-03-11T01:29:08;1.63;;;1.30;;
62071;SDS011;48031;48.542;13.232;2023-03-11T01:33:14;1.30;;;1.20;;
62071;SDS011;48031;48.542;13.232;2023-03-11T01:37:18;0.95;;;0.95;;
62071;SDS011;48031;48.542;13.232;2023-03-11T01:41:21;1.17;;;1.10;;
62071;SDS011;48031;48.542;13.232;2023-03-11T01:49:56;2.70;;;1.02;;
62071;SDS011;48031;48.542;13.232;2023-03-11T01:53:58;0.88;;;0.88;;
62071;SDS011;48031;48.542;13.232;2023-03-11T01:58:06;0.90;;;0.90;;
62071;SDS011;48031;48.542;13.232;2023-03-11T02:06:33;1.25;;;1.20;;
62071;SDS011;48031;48.542;13.232;2023-03-11T02:10:36;1.08;;;1.00;;
62071;SDS011;48031;48.542;13.232;2023-03-11T02:14:45;0.98;;;0.98;;
62071;SDS011;48031;48.542;13.232;2023-03-11T02:18:51;1.00;;;1.00;;
62071;SDS011;48031;48.542;13.232;2023-03-11T02:22:53;0.90;;;0.90;;
62071;SDS011;48031;48.542;13.232;2023-03-11T02:27:05;0.90;;;0.90;;
62071;SDS011;48031;48.542;13.232;2023-03-11T02:31:09;0.90;;;0.90;;
62071;SDS011;48031;48.542;13.232;2023-03-11T02:35:12;0.90;;;0.90;;
62071;SDS011;48031;48.542;13.232;2023-03-11T02:39:15;1.00;;;1.00;;
62071;SDS011;48031;48.542;13.232;2023-03-11T02:43:19;1.48;;;1.38;;
62071;SDS011;48031;48.542;13.232;2023-03-11T02:47:25;1.00;;;1.00;;
62071;SDS011;48031;48.542;13.232;2023-03-11T02:51:28;0.90;;;0.90;;
62071;SDS011;48031;48.542;13.232;2023-03-11T02:55:30;0.93;;;0.93;;
62071;SDS011;48031;48.542;13.232;2023-03-11T02:59:33;0.98;;;0.98;;
62071;SDS011;48031;48.542;13.232;2023-03-11T03:03:35;1.10;;;1.10;;
62071;SDS011;48031;48.542;13.232;2023-03-11T03:07:38;1.00;;;1.00;;
62071;SDS011;48031;48.542;13.232;2023-03-11T03:11:40;1.10;;;1.10;;
62071;SDS011;48031;48.542;13.232;2023-03-11T03:15:43;1.10;;;1.10;;
62071;SDS011;48031;48.542;13.232;2023-03-11T03:19:44;1.17;;;1.10;;
62071;SDS011;48031;48.542;13.232;2023-03-11T03:23:47;1.40;;;1.30;;
62071;SDS011;48031;48.542;13.232;2023-03-11T03:27:49;1.40;;;1.30;;
62071;SDS011;48031;48.542;13.232;2023-03-11T03:31:52;1.77;;;1.33;;
62071;SDS011;48031;48.542;13.232;2023-03-11T03:35:55;1.45;;;1.35;;
62071;SDS011;48031;48.542;13.232;2023-03-11T03:40:01;1.20;;;1.10;;
62071;SDS011;48031;48.542;13.232;2023-03-11T03:44:09;1.42;;;1.23;;
62071;SDS011;48031;48.542;13.232;2023-03-11T03:48:11;1.08;;;1.08;;
62071;SDS011;48031;48.542;13.232;2023-03-11T03:52:17;1.02;;;1.02;;
62071;SDS011;48031;48.542;13.232;2023-03-11T03:56:19;1.27;;;1.17;;
62071;SDS011;48031;48.542;13.232;2023-03-11T04:00:20;1.40;;;1.30;;
62071;SDS011;48031;48.542;13.232;2023-03-11T04:04:29;1.52;;;1.42;;
62071;SDS011;48031;48.542;13.232;2023-03-11T04:08:32;1.48;;;1.38;;
62071;SDS011;48031;48.542;13.232;2023-03-11T04:12:34;1.30;;;1.20;;
62071;SDS011;48031;48.542;13.232;2023-03-11T04:16:36;1.65;;;1.55;;
62071;SDS011;48031;48.542;13.232;2023-03-11T04:20:43;1.48;;;1.38;;
62071;SDS011;48031;48.542;13.232;2023-03-11T04:24:46;1.52;;;1.42;;
62071;SDS011;48031;48.542;13.232;2023-03-11T04:28:48;1.20;;;1.20;;
62071;SDS011;48031;48.542;13.232;2023-03-11T04:32:51;1.67;;;1.58;;
62071;SDS011;48031;48.542;13.232;2023-03-11T04:36:54;1.50;;;1.40;;
62071;SDS011;48031;48.542;13.232;2023-03-11T04:41:02;1.90;;;1.70;;
62071;SDS011;48031;48.542;13.232;2023-03-11T04:45:07;1.50;;;1.27;;
62071;SDS011;48031;48.542;13.232;2023-03-11T04:49:13;1.58;;;1.48;;
62071;SDS011;48031;48.542;13.232;2023-03-11T04:53:15;1.52;;;1.23;;
62071;SDS011;48031;48.542;13.232;2023-03-11T04:57:17;1.50;;;1.40;;
62071;SDS011;48031;48.542;13.232;2023-03-11T05:01:21;1.60;;;1.50;;
62071;SDS011;48031;48.542;13.232;2023-03-11T05:05:24;1.58;;;1.48;;
62071;SDS011;48031;48.542;13.232;2023-03-11T05:09:26;6.38;;;1.58;;
62071;SDS011;48031;48.542;13.232;2023-03-11T05:13:28;1.30;;;1.20;;
62071;SDS011;48031;48.542;13.232;2023-03-11T05:17:31;1.73;;;1.60;;
62071;SDS011;48031;48.542;13.232;2023-03-11T05:21:33;1.70;;;1.60;;
62071;SDS011;48031;48.542;13.232;2023-03-11T05:25:35;1.98;;;1.83;;
62071;SDS011;48031;48.542;13.232;2023-03-11T05:29:38;1.75;;;1.52;;
62071;SDS011;48031;48.542;13.232;2023-03-11T05:33:43;1.90;;;1.55;;
62071;SDS011;48031;48.542;13.232;2023-03-11T05:37:47;1.40;;;1.30;;
62071;SDS011;48031;48.542;13.232;2023-03-11T05:41:52;2.00;;;1.65;;
62071;SDS011;48031;48.542;13.232;2023-03-11T05:45:54;1.73;;;1.50;;
62071;SDS011;48031;48.542;13.232;2023-03-11T05:49:56;1.40;;;1.30;;
62071;SDS011;48031;48.542;13.232;2023-03-11T05:53:59;1.55;;;1.45;;
62071;SDS011;48031;48.542;13.232;2023-03-11T05:58:09;1.48;;;1.40;;
62071;SDS011;48031;48.542;13.232;2023-03-11T06:02:11;2.00;;;1.80;;
62071;SDS011;48031;48.542;13.232;2023-03-11T06:06:14;1.60;;;1.50;;
62071;SDS011;48031;48.542;13.232;2023-03-11T06:10:16;2.13;;;1.55;;
62071;SDS011;48031;48.542;13.232;2023-03-11T06:14:19;2.22;;;1.75;;
62071;SDS011;48031;48.542;13.232;2023-03-11T06:18:23;1.80;;;1.70;;
62071;SDS011;48031;48.542;13.232;2023-03-11T06:22:29;3.10;;;2.17;;
62071;SDS011;48031;48.542;13.232;2023-03-11T06:26:31;1.25;;;1.20;;
62071;SDS011;48031;48.542;13.232;2023-03-11T06:30:32;1.73;;;1.60;;
62071;SDS011;48031;48.542;13.232;2023-03-11T06:34:41;1.80;;;1.70;;
62071;SDS011;48031;48.542;13.232;2023-03-11T06:38:43;1.60;;;1.50;;
62071;SDS011;48031;48.542;13.232;2023-03-11T06:42:48;2.28;;;1.40;;
62071;SDS011;48031;48.542;13.232;2023-03-11T06:46:51;1.90;;;1.52;;
62071;SDS011;48031;48.542;13.232;2023-03-11T06:50:54;1.70;;;1.60;;
62071;SDS011;48031;48.542;13.232;2023-03-11T06:55:01;2.10;;;1.73;;
62071;SDS011;48031;48.542;13.232;2023-03-11T06:59:05;1.40;;;1.30;;
62071;SDS011;48031;48.542;13.232;2023-03-11T07:03:08;1.42;;;1.33;;
62071;SDS011;48031;48.542;13.232;2023-03-11T07:07:10;1.60;;;1.50;;
62071;SDS011;48031;48.542;13.232;2023-03-11T07:11:13;1.63;;;1.48;;
62071;SDS011;48031;48.542;13.232;2023-03-11T07:15:22;1.50;;;1.40;;
62071;SDS011;48031;48.542;13.232;2023-03-11T07:19:24;1.70;;;1.60;;
62071;SDS011;48031;48.542;13.232;2023-03-11T07:23:26;1.50;;;1.40;;
62071;SDS011;48031;48.542;13.232;2023-03-11T07:27:32;1.58;;;1.48;;
62071;SDS011;48031;48.542;13.232;2023-03-11T07:31:36;1.80;;;1.70;;
62071;SDS011;48031;48.542;13.232;2023-03-11T07:35:38;1.50;;;1.40;;
62071;SDS011;48031;48.542;13.232;2023-03-11T07:39:40;2.22;;;1.80;;
62071;SDS011;48031;48.542;13.232;2023-03-11T07:43:42;1.63;;;1.50;;
62071;SDS011;48031;48.542;13.232;2023-03-11T07:47:44;2.05;;;1.85;;
62071;SDS011;48031;48.542;13.232;2023-03-11T07:51:46;2.42;;;1.63;;
62071;SDS011;48031;48.542;13.232;2023-03-11T07:55:48;1.70;;;1.60;;
62071;SDS011;48031;48.542;13.232;2023-03-11T07:59:56;4.05;;;1.70;;
62071;SDS011;48031;48.542;13.232;2023-03-11T08:03:57;1.75;;;1.65;;
62071;SDS011;48031;48.542;13.232;2023-03-11T08:07:59;2.10;;;1.80;;
62071;SDS011;48031;48.542;13.232;2023-03-11T08:12:01;4.53;;;1.90;;
62071;SDS011;48031;48.542;13.232;2023-03-11T08:16:03;2.45;;;1.83;;
62071;SDS011;48031;48.542;13.232;2023-03-11T08:20:07;1.77;;;1.60;;
62071;SDS011;48031;48.542;13.232;2023-03-11T08:24:10;1.80;;;1.70;;
62071;SDS011;48031;48.542;13.232;2023-03-11T08:28:14;3.35;;;1.50;;
62071;SDS011;48031;48.542;13.232;2023-03-11T08:32:16;1.85;;;1.75;;
62071;SDS011;48031;48.542;13.232;2023-03-11T08:36:18;1.88;;;1.77;;
62071;SDS011;48031;48.542;13.232;2023-03-11T08:40:20;1.92;;;1.73;;
62071;SDS011;48031;48.542;13.232;2023-03-11T08:44:22;2.47;;;2.05;;
62071;SDS011;48031;48.542;13.232;2023-03-11T08:48:24;2.40;;;1.90;;
62071;SDS011;48031;48.542;13.232;2023-03-11T08:52:26;2.30;;;2.10;;
62071;SDS011;48031;48.542;13.232;2023-03-11T08:56:28;1.92;;;1.83;;
62071;SDS011;48031;48.542;13.232;2023-03-11T09:00:30;2.13;;;1.83;;
62071;SDS011;48031;48.542;13.232;2023-03-11T09:04:32;3.05;;;2.05;;
62071;SDS011;48031;48.542;13.232;2023-03-11T09:08:34;2.00;;;1.80;;
62071;SDS011;48031;48.542;13.232;2023-03-11T09:12:37;2.08;;;1.70;;
62071;SDS011;48031;48.542;13.232;2023-03-11T09:16:39;1.92;;;1.55;;
62071;SDS011;48031;48.542;13.232;2023-03-11T09:20:41;2.40;;;1.70;;
62071;SDS011;48031;48.542;13.232;2023-03-11T09:24:44;2.42;;;1.58;;
62071;SDS011;48031;48.542;13.232;2023-03-11T09:28:46;2.30;;;1.73;;
62071;SDS011;48031;48.542;13.232;2023-03-11T09:32:49;1.90;;;1.60;;
62071;SDS011;48031;48.542;13.232;2023-03-11T09:36:51;5.50;;;2.08;;
62071;SDS011;48031;48.542;13.232;2023-03-11T09:45:02;2.88;;;1.92;;
62071;SDS011;48031;48.542;13.232;2023-03-11T09:54:02;1.90;;;1.80;;
62071;SDS011;48031;48.542;13.232;2023-03-11T09:58:10;2.10;;;1.80;;
62071;SDS011;48031;48.542;13.232;2023-03-11T10:02:17;1.88;;;1.67;;
62071;SDS011;48031;48.542;13.232;2023-03-11T10:06:24;2.67;;;1.60;;
62071;SDS011;48031;48.542;13.232;2023-03-11T10:10:31;1.70;;;1.60;;
62071;SDS011;48031;48.542;13.232;2023-03-11T10:27:51;1.92;;;1.75;;
62071;SDS011;48031;48.542;13.232;2023-03-11T10:36:19;3.20;;;1.60;;
62071;SDS011;48031;48.542;13.232;2023-03-11T10:40:34;1.40;;;1.30;;
62071;SDS011;48031;48.542;13.232;2023-03-11T10:44:40;2.28;;;1.40;;
62071;SDS011;48031;48.542;13.232;2023-03-11T10:48:43;1.48;;;1.38;;
62071;SDS011;48031;48.542;13.232;2023-03-11T10:57:19;2.05;;;1.25;;
62071;SDS011;48031;48.542;13.232;2023-03-11T11:01:25;1.50;;;1.40;;
62071;SDS011;48031;48.542;13.232;2023-03-11T11:05:30;1.58;;;1.20;;
62071;SDS011;48031;48.542;13.232;2023-03-11T11:09:34;1.88;;;1.50;;
62071;SDS011;48031;48.542;13.232;2023-03-11T11:13:36;1.73;;;1.60;;
62071;SDS011;48031;48.542;13.232;2023-03-11T11:17:37;1.90;;;1.48;;
62071;SDS011;48031;48.542;13.232;2023-03-11T11:21:46;3.33;;;1.65;;
62071;SDS011;48031;48.542;13.232;2023-03-11T11:25:54;2.10;;;1.70;;
62071;SDS011;48031;48.542;13.232;2023-03-11T11:38:31;1.98;;;1.70;;
62071;SDS011;48031;48.542;13.232;2023-03-11T11:42:34;1.45;;;1.35;;
62071;SDS011;48031;48.542;13.232;2023-03-11T11:46:39;1.85;;;1.50;;
62071;SDS011;48031;48.542;13.232;2023-03-11T11:50:44;1.92;;;1.60;;
62071;SDS011;48031;48.542;13.232;2023-03-11T11:55:02;1.60;;;1.50;;
62071;SDS011;48031;48.542;13.232;2023-03-11T11:59:16;2.78;;;1.60;;
62071;SDS011;48031;48.542;13.232;2023-03-11T12:20:42;2.17;;;1.38;;
62071;SDS011;48031;48.542;13.232;2023-03-11T12:29:33;2.95;;;1.90;;
62071;SDS011;48031;48.542;13.232;2023-03-11T12:33:43;2.53;;;1.87;;
62071;SDS011;48031;48.542;13.232;2023-03-11T12:37:56;2.85;;;1.58;;
62071;SDS011;48031;48.542;13.232;2023-03-11T12:46:17;2.17;;;1.58;;
62071;SDS011;48031;48.542;13.232;2023-03-11T12:50:36;2.40;;;1.80;;
62071;SDS011;48031;48.542;13.232;2023-03-11T13:07:48;2.28;;;1.77;;
62071;SDS011;48031;48.542;13.232;2023-03-11T13:16:44;2.58;;;1.67;;
62071;SDS011;48031;48.542;13.232;2023-03-11T13:20:48;1.77;;;1.67;;
62071;SDS011;48031;48.542;13.232;2023-03-11T13:24:51;1.92;;;1.60;;
62071;SDS011;48031;48.542;13.232;2023-03-11T13:28:59;2.08;;;1.80;;
62071;SDS011;48031;48.542;13.232;2023-03-11T13:38:29;1.98;;;1.80;;
62071;SDS011;48031;48.542;13.232;2023-03-11T13:42:43;1.95;;;1.80;;
62071;SDS011;48031;48.542;13.232;2023-03-11T13:46:51;3.20;;;1.70;;
62071;SDS011;48031;48.542;13.232;2023-03-11T13:51:04;3.58;;;1.90;;
62071;SDS011;48031;48.542;13.232;2023-03-11T13:55:17;1.95;;;1.77;;
62071;SDS011;48031;48.542;13.232;2023-03-11T13:59:22;1.98;;;1.80;;
62071;SDS011;48031;48.542;13.232;2023-03-11T14:03:25;1.70;;;1.60;;
62071;SDS011;48031;48.542;13.232;2023-03-11T14:07:30;1.95;;;1.75;;
62071;SDS011;48031;48.542;13.232;2023-03-11T14:11:38;3.63;;;1.95;;
62071;SDS011;48031;48.542;13.232;2023-03-11T14:15:45;2.25;;;1.80;;
62071;SDS011;48031;48.542;13.232;2023-03-11T14:20:06;1.95;;;1.75;;
62071;SDS011;48031;48.542;13.232;2023-03-11T14:24:17;2.17;;;1.85;;
62071;SDS011;48031;48.542;13.232;2023-03-11T14:28:21;2.53;;;1.90;;
62071;SDS011;48031;48.542;13.232;2023-03-11T14:32:27;3.78;;;2.42;;
62071;SDS011;48031;48.542;13.232;2023-03-11T14:36:38;3.35;;;1.90;;
62071;SDS011;48031;48.542;13.232;2023-03-11T14:40:56;2.88;;;1.77;;
62071;SDS011;48031;48.542;13.232;2023-03-11T14:45:16;1.95;;;1.52;;
62071;SDS011;48031;48.542;13.232;2023-03-11T14:49:20;3.58;;;2.00;;
62071;SDS011;48031;48.542;13.232;2023-03-11T14:53:45;1.95;;;1.50;;
62071;SDS011;48031;48.542;13.232;2023-03-11T15:02:26;2.25;;;2.10;;
62071;SDS011;48031;48.542;13.232;2023-03-11T15:06:31;2.47;;;1.90;;
62071;SDS011;48031;48.542;13.232;2023-03-11T15:10:35;1.75;;;1.65;;
62071;SDS011;48031;48.542;13.232;2023-03-11T15:14:47;2.38;;;1.70;;
62071;SDS011;48031;48.542;13.232;2023-03-11T15:18:50;1.95;;;1.63;;
62071;SDS011;48031;48.542;13.232;2023-03-11T15:22:55;1.70;;;1.60;;
62071;SDS011;48031;48.542;13.232;2023-03-11T15:27:06;1.90;;;1.52;;
62071;SDS011;48031;48.542;13.232;2023-03-11T15:35:26;2.20;;;2.00;;
62071;SDS011;48031;48.542;13.232;2023-03-11T15:43:41;1.92;;;1.77;;
62071;SDS011;48031;48.542;13.232;2023-03-11T15:47:47;1.83;;;1.65;;
62071;SDS011;48031;48.542;13.232;2023-03-11T15:51:49;2.88;;;2.10;;
62071;SDS011;48031;48.542;13.232;2023-03-11T15:55:52;2.42;;;1.80;;
62071;SDS011;48031;48.542;13.232;2023-03-11T16:00:14;1.73;;;1.60;;
62071;SDS011;48031;48.542;13.232;2023-03-11T16:04:21;2.47;;;1.70;;
62071;SDS011;48031;48.542;13.232;2023-03-11T16:08:23;2.13;;;1.88;;
62071;SDS011;48031;48.542;13.232;2023-03-11T16:12:25;2.70;;;2.00;;
62071;SDS011;48031;48.542;13.232;2023-03-11T16:16:27;5.38;;;2.30;;
62071;SDS011;48031;48.542;13.232;2023-03-11T16:24:39;2.92;;;1.70;;
62071;SDS011;48031;48.542;13.232;2023-03-11T16:28:41;3.20;;;2.00;;
62071;SDS011;48031;48.542;13.232;2023-03-11T16:32:43;3.28;;;2.10;;
62071;SDS011;48031;48.542;13.232;2023-03-11T16:36:44;2.00;;;1.80;;
62071;SDS011;48031;48.542;13.232;2023-03-11T16:40:50;1.70;;;1.60;;
62071;SDS011;48031;48.542;13.232;2023-03-11T16:44:58;2.42;;;1.90;;
62071;SDS011;48031;48.542;13.232;2023-03-11T16:49:00;1.58;;;1.48;;
62071;SDS011;48031;48.542;13.232;2023-03-11T16:53:02;2.47;;;1.80;;
62071;SDS011;48031;48.542;13.232;2023-03-11T16:57:04;3.22;;;1.73;;
62071;SDS011;48031;48.542;13.232;2023-03-11T17:01:06;3.33;;;2.00;;
62071;SDS011;48031;48.542;13.232;2023-03-11T17:05:07;3.95;;;1.85;;
62071;SDS011;48031;48.542;13.232;2023-03-11T17:09:10;4.43;;;2.30;;
62071;SDS011;48031;48.542;13.232;2023-03-11T17:13:12;3.78;;;2.38;;
62071;SDS011;48031;48.542;13.232;2023-03-11T17:17:16;3.60;;;2.30;;
62071;SDS011;48031;48.542;13.232;2023-03-11T17:21:19;2.42;;;1.95;;
62071;SDS011;48031;48.542;13.232;2023-03-11T17:25:20;2.58;;;1.90;;
62071;SDS011;48031;48.542;13.232;2023-03-11T17:29:23;3.60;;;2.30;;
62071;SDS011;48031;48.542;13.232;2023-03-11T17:33:25;3.67;;;2.22;;
62071;SDS011;48031;48.542;13.232;2023-03-11T17:37:27;2.03;;;1.65;;
62071;SDS011;48031;48.542;13.232;2023-03-11T17:41:28;4.13;;;2.53;;
62071;SDS011;48031;48.542;13.232;2023-03-11T17:45:30;3.75;;;2.20;;
62071;SDS011;48031;48.542;13.232;2023-03-11T17:49:32;5.18;;;2.22;;
62071;SDS011;48031;48.542;13.232;2023-03-11T17:53:35;4.22;;;2.42;;
62071;SDS011;48031;48.542;13.232;2023-03-11T17:57:38;3.53;;;2.40;;
62071;SDS011;48031;48.542;13.232;2023-03-11T18:01:46;3.75;;;2.45;;
62071;SDS011;48031;48.542;13.232;2023-03-11T18:05:54;4.35;;;2.33;;
62071;SDS011;48031;48.542;13.232;2023-03-11T18:10:04;2.63;;;2.10;;
62071;SDS011;48031;48.542;13.232;2023-03-11T18:14:07;3.65;;;2.33;;
62071;SDS011;48031;48.542;13.232;2023-03-11T18:18:08;2.88;;;2.20;;
62071;SDS011;48031;48.542;13.232;2023-03-11T18:22:10;2.47;;;2.00;;
62071;SDS011;48031;48.542;13.232;2023-03-11T18:26:14;2.10;;;1.90;;
62071;SDS011;48031;48.542;13.232;2023-03-11T18:30:17;2.13;;;1.83;;
62071;SDS011;48031;48.542;13.232;2023-03-11T18:34:19;2.92;;;2.00;;
62071;SDS011;48031;48.542;13.232;2023-03-11T18:38:22;3.25;;;2.30;;
62071;SDS011;48031;48.542;13.232;2023-03-11T18:42:24;4.05;;;2.50;;
62071;SDS011;48031;48.542;13.232;2023-03-11T18:46:28;1.98;;;1.67;;
62071;SDS011;48031;48.542;13.232;2023-03-11T18:50:34;2.03;;;1.55;;
62071;SDS011;48031;48.542;13.232;2023-03-11T18:54:36;1.63;;;1.52;;
62071;SDS011;48031;48.542;13.232;2023-03-11T18:58:38;2.60;;;1.80;;
62071;SDS011;48031;48.542;13.232;2023-03-11T19:02:40;3.25;;;2.28;;
62071;SDS011;48031;48.542;13.232;2023-03-11T19:06:41;1.73;;;1.60;;
62071;SDS011;48031;48.542;13.232;2023-03-11T19:10:43;1.85;;;1.70;;
62071;SDS011;48031;48.542;13.232;2023-03-11T19:14:45;2.45;;;1.60;;
62071;SDS011;48031;48.542;13.232;2023-03-11T19:18:47;3.17;;;2.10;;
62071;SDS011;48031;48.542;13.232;2023-03-11T19:22:51;2.72;;;1.80;;
62071;SDS011;48031;48.542;13.232;2023-03-11T19:26:54;3.22;;;2.53;;
62071;SDS011;48031;48.542;13.232;2023-03-11T19:30:56;3.30;;;2.20;;
62071;SDS011;48031;48.542;13.232;2023-03-11T19:34:59;2.83;;;2.10;;
62071;SDS011;48031;48.542;13.232;2023-03-11T19:39:01;2.33;;;1.80;;
62071;SDS011;48031;48.542;13.232;2023-03-11T19:43:03;2.10;;;1.90;;
62071;SDS011;48031;48.542;13.232;2023-03-11T19:47:06;2.20;;;1.60;;
62071;SDS011;48031;48.542;13.232;2023-03-11T19:51:08;1.50;;;1.40;;
62071;SDS011;48031;48.542;13.232;2023-03-11T19:55:12;1.70;;;1.55;;
62071;SDS011;48031;48.542;13.232;2023-03-11T19:59:14;1.60;;;1.50;;
62071;SDS011;48031;48.542;13.232;2023-03-11T20:03:16;1.95;;;1.60;;
62071;SDS011;48031;48.542;13.232;2023-03-11T20:07:18;1.80;;;1.42;;
62071;SDS011;48031;48.542;13.232;2023-03-11T20:11:20;1.52;;;1.42;;
62071;SDS011;48031;48.542;13.232;2023-03-11T20:15:22;2.08;;;1.50;;
62071;SDS011;48031;48.542;13.232;2023-03-11T20:19:24;1.60;;;1.50;;
62071;SDS011;48031;48.542;13.232;2023-03-11T20:23:26;1.98;;;1.38;;
62071;SDS011;48031;48.542;13.232;2023-03-11T20:27:28;1.48;;;1.38;;
62071;SDS011;48031;48.542;13.232;2023-03-11T20:31:30;1.40;;;1.30;;
62071;SDS011;48031;48.542;13.232;2023-03-11T20:35:32;1.63;;;1.40;;
62071;SDS011;48031;48.542;13.232;2023-03-11T20:39:34;1.60;;;1.50;;
62071;SDS011;48031;48.542;13.232;2023-03-11T20:43:38;1.48;;;1.38;;
62071;SDS011;48031;48.542;13.232;2023-03-11T20:47:40;1.60;;;1.50;;
62071;SDS011;48031;48.542;13.232;2023-03-11T20:51:44;1.80;;;1.70;;
62071;SDS011;48031;48.542;13.232;2023-03-11T20:55:48;1.83;;;1.45;;
62071;SDS011;48031;48.542;13.232;2023-03-11T20:59:50;2.28;;;1.45;;
62071;SDS011;48031;48.542;13.232;2023-03-11T21:03:53;1.55;;;1.45;;
62071;SDS011;48031;48.542;13.232;2023-03-11T21:07:56;1.77;;;1.67;;
62071;SDS011;48031;48.542;13.232;2023-03-11T21:11:58;2.42;;;1.70;;
62071;SDS011;48031;48.542;13.232;2023-03-11T21:16:02;1.80;;;1.70;;
62071;SDS011;48031;48.542;13.232;2023-03-11T21:20:04;3.22;;;1.85;;
62071;SDS011;48031;48.542;13.232;2023-03-11T21:24:07;1.58;;;1.48;;
62071;SDS011;48031;48.542;13.232;2023-03-11T21:28:11;1.92;;;1.50;;
62071;SDS011;48031;48.542;13.232;2023-03-11T21:32:14;2.53;;;1.75;;
62071;SDS011;48031;48.542;13.232;2023-03-11T21:36:16;2.20;;;1.90;;
62071;SDS011;48031;48.542;13.232;2023-03-11T21:40:18;2.75;;;1.80;;
62071;SDS011;48031;48.542;13.232;2023-03-11T21:44:21;2.17;;;1.80;;
62071;SDS011;48031;48.542;13.232;2023-03-11T21:48:23;3.00;;;2.30;;
62071;SDS011;48031;48.542;13.232;2023-03-11T21:52:25;2.20;;;2.00;;
62071;SDS011;48031;48.542;13.232;2023-03-11T21:56:27;1.88;;;1.65;;
62071;SDS011;48031;48.542;13.232;2023-03-11T22:00:29;2.00;;;1.77;;
62071;SDS011;48031;48.542;13.232;2023-03-11T22:04:31;1.73;;;1.63;;
62071;SDS011;48031;48.542;13.232;2023-03-11T22:08:33;1.63;;;1.52;;
62071;SDS011;48031;48.542;13.232;2023-03-11T22:12:35;2.72;;;1.90;;
62071;SDS011;48031;48.542;13.232;2023-03-11T22:16:37;2.53;;;2.10;;
62071;SDS011;48031;48.542;13.232;2023-03-11T22:20:39;3.17;;;2.30;;
62071;SDS011;48031;48.542;13.232;2023-03-11T22:24:42;3.15;;;2.28;;
62071;SDS011;48031;48.542;13.232;2023-03-11T22:28:43;2.85;;;2.08;;
62071;SDS011;48031;48.542;13.232;2023-03-11T22:32:45;2.45;;;1.90;;
62071;SDS011;48031;48.542;13.232;2023-03-11T22:36:47;3.05;;;2.33;;
62071;SDS011;48031;48.542;13.232;2023-03-11T22:40:49;2.60;;;1.90;;
62071;SDS011;48031;48.542;13.232;2023-03-11T22:44:51;2.47;;;1.83;;
62071;SDS011;48031;48.542;13.232;2023-03-11T22:48:53;2.22;;;1.80;;
62071;SDS011;48031;48.542;13.232;2023-03-11T22:52:55;2.22;;;1.67;;
62071;SDS011;48031;48.542;13.232;2023-03-11T22:56:57;1.88;;;1.70;;
62071;SDS011;48031;48.542;13.232;2023-03-11T23:00:58;1.70;;;1.60;;
62071;SDS011;48031;48.542;13.232;2023-03-11T23:05:01;1.60;;;1.50;;
62071;SDS011;48031;48.542;13.232;2023-03-11T23:09:04;1.90;;;1.67;;
62071;SDS011;48031;48.542;13.232;2023-03-11T23:13:06;2.22;;;1.75;;
62071;SDS011;48031;48.542;13.232;2023-03-11T23:17:08;1.83;;;1.50;;
62071;SDS011;48031;48.542;13.232;2023-03-11T23:21:17;1.60;;;1.50;;
62071;SDS011;48031;48.542;13.232;2023-03-11T23:25:19;1.98;;;1.77;;
62071;SDS011;48031;48.542;13.232;2023-03-11T23:29:21;1.42;;;1.33;;
62071;SDS011;48031;48.542;13.232;2023-03-11T23:33:23;1.45;;;1.35;;
62071;SDS011;48031;48.542;13.232;2023-03-11T23:37:25;1.30;;;1.20;;
62071;SDS011;48031;48.542;13.232;2023-03-11T23:41:26;2.63;;;1.70;;
62071;SDS011;48031;48.542;13.232;2023-03-11T23:45:29;2.60;;;1.88;;
62071;SDS011;48031;48.542;13.232;2023-03-11T23:49:31;1.52;;;1.42;;
62071;SDS011;48031;48.542;13.232;2023-03-11T23:53:33;2.10;;;1.90;;
62071;SDS011;48031;48.542;13.232;2023-03-11T23:57:36;2.58;;;2.15;;
